»·PEaware :: DAL1524 KLAS-KOAK

DAL1524 :: KLAS-KOAK

FLIGHT INFORMATION

Flight Status: Arrived
Operator:
Delta Air Lines
More flights by this operator :: More flights under this callsign
Pilot: Matteo S. (9898)
Aircraft: BOEING 737-900
(B739)
More flights by this aircraft type
Origin: KLAS McCarran Intl
United States
Destination: KOAK Metro Oakland Intl
United States
More flights between these airports :: More routes between these airports
Route: SHEAD1 KENNO RUSME OAKES2
File this flight plan on PilotEdge
Remarks:
Altitude:
(Current/Filed)
36,000ft
Speed:
(Current/Filed)
460kts
Departed: 19-Apr-18 11:40 AM
Arrived: 19-Apr-18 12:51 PM
Distance/Time
Traveled:
353nm/1:11
Distance/Time
To Go:
Arrived

Flight Plot

Page will automatically refresh every two minutes.

Flight plan parsing failed; only flown route is shown


Map Options




Map Legend


Flown Route
Filed Route
Departure Airport
Arrival Airport
Navaid (VOR, NDB)
Fix

Horizontal Profiles

Position Reports

Time Latitude Longitude Heading Altitude Ground
Speed
19-Apr-18 11:18 36.079895 -115.135285 352 2189ft 0kts
19-Apr-18 11:19 36.079895 -115.135285 352 2189ft 0kts
19-Apr-18 11:20 36.079895 -115.135285 352 2189ft 0kts
19-Apr-18 11:21 36.079895 -115.135285 352 2189ft 0kts
19-Apr-18 11:22 36.079895 -115.135285 352 2189ft 0kts
19-Apr-18 11:23 36.079895 -115.135285 352 2189ft 0kts
19-Apr-18 11:24 36.079895 -115.135285 352 2189ft 0kts
19-Apr-18 11:25 36.079895 -115.135285 352 2189ft 0kts
19-Apr-18 11:26 36.079895 -115.135285 352 2189ft 0kts
19-Apr-18 11:27 36.079408 -115.135272 25 2189ft 2kts
19-Apr-18 11:28 36.079116 -115.135859 93 2189ft 2kts
19-Apr-18 11:29 36.079302 -115.136310 136 2189ft 0kts
19-Apr-18 11:30 36.079302 -115.136310 136 2189ft 0kts
19-Apr-18 11:31 36.078287 -115.134844 93 2189ft 18kts
19-Apr-18 11:32 36.078259 -115.126170 91 2189ft 26kts
19-Apr-18 11:33 36.077783 -115.121914 130 2189ft 1kts
19-Apr-18 11:34 36.077409 -115.121416 140 2189ft 0kts
19-Apr-18 11:35 36.077409 -115.121416 140 2189ft 0kts
19-Apr-18 11:36 36.077409 -115.121416 140 2189ft 0kts
19-Apr-18 11:37 36.077409 -115.121416 140 2189ft 0kts
19-Apr-18 11:38 36.076423 -115.122978 268 2189ft 26kts
19-Apr-18 11:39 36.077075 -115.166590 266 3677ft 167kts
19-Apr-18 11:40 36.074302 -115.237269 247 5306ft 258kts
19-Apr-18 11:41 36.015825 -115.285370 200 6798ft 264kts
19-Apr-18 11:42 35.953148 -115.327118 222 8309ft 263kts
19-Apr-18 11:43 35.900020 -115.390442 225 9410ft 266kts
19-Apr-18 11:44 35.886709 -115.485910 269 10946ft 333kts
19-Apr-18 11:45 35.889363 -115.597117 271 15883ft 303kts
19-Apr-18 11:46 35.891036 -115.687190 276 18651ft 318kts
19-Apr-18 11:47 35.892901 -115.797202 276 20744ft 322kts
19-Apr-18 11:48 35.894694 -115.908411 277 23932ft 329kts
19-Apr-18 11:49 35.927590 -116.008548 312 26427ft 339kts
19-Apr-18 11:50 35.997603 -116.089189 313 28646ft 353kts
19-Apr-18 11:51 36.070841 -116.173360 313 30496ft 366kts
19-Apr-18 11:52 36.144989 -116.258810 313 32246ft 369kts
19-Apr-18 11:53 36.219686 -116.345101 313 33913ft 367kts
19-Apr-18 11:54 36.294327 -116.431587 313 35131ft 369kts
19-Apr-18 11:55 36.369292 -116.518678 314 35871ft 371kts
19-Apr-18 11:56 36.444343 -116.606093 314 35878ft 370kts
19-Apr-18 11:57 36.517018 -116.691086 313 35890ft 370kts
19-Apr-18 11:58 36.595717 -116.773317 323 35896ft 375kts
19-Apr-18 11:59 36.684976 -116.840962 323 35886ft 375kts
19-Apr-18 12:00 36.773838 -116.908348 324 35884ft 375kts
19-Apr-18 12:01 36.862575 -116.975878 324 35882ft 375kts
19-Apr-18 12:02 36.951362 -117.043667 324 35880ft 374kts
19-Apr-18 12:03 37.039782 -117.111374 324 35930ft 375kts
19-Apr-18 12:04 37.127420 -117.178664 324 35942ft 374kts
19-Apr-18 12:05 37.216001 -117.246860 324 35940ft 374kts
19-Apr-18 12:06 37.304128 -117.315426 320 35934ft 372kts
19-Apr-18 12:07 37.382752 -117.398549 317 35936ft 370kts
19-Apr-18 12:08 37.460759 -117.482399 317 35934ft 370kts
19-Apr-18 12:09 37.507846 -117.593207 285 35933ft 375kts
19-Apr-18 12:10 37.525314 -117.718120 286 35946ft 386kts
19-Apr-18 12:11 37.544805 -117.853799 286 35914ft 396kts
19-Apr-18 12:12 37.564450 -117.990166 286 35912ft 397kts
19-Apr-18 12:13 37.584071 -118.126701 286 35911ft 396kts
19-Apr-18 12:14 37.603618 -118.263469 286 35909ft 397kts
19-Apr-18 12:15 37.623075 -118.400467 286 35908ft 397kts
19-Apr-18 12:16 37.642293 -118.536779 286 35960ft 396kts
19-Apr-18 12:17 37.660565 -118.667392 286 35966ft 398kts
19-Apr-18 12:18 37.679439 -118.804343 286 35964ft 397kts
19-Apr-18 12:19 37.698228 -118.941635 286 35963ft 397kts
19-Apr-18 12:20 37.716813 -119.078401 286 35963ft 397kts
19-Apr-18 12:21 37.735378 -119.216075 286 35962ft 397kts
19-Apr-18 12:22 37.753749 -119.353492 286 35962ft 397kts
19-Apr-18 12:23 37.771963 -119.490879 286 35959ft 398kts
19-Apr-18 12:24 37.790008 -119.628141 286 35974ft 397kts
19-Apr-18 12:25 37.807458 -119.762811 286 35991ft 398kts
19-Apr-18 12:26 37.824767 -119.898179 286 34685ft 395kts
19-Apr-18 12:27 37.842149 -120.034930 288 31930ft 397kts
19-Apr-18 12:28 37.859428 -120.172341 289 29424ft 389kts
19-Apr-18 12:29 37.875950 -120.304704 288 27516ft 369kts
19-Apr-18 12:30 37.870048 -120.434039 268 25672ft 377kts
19-Apr-18 12:31 37.847602 -120.561038 268 23901ft 365kts
19-Apr-18 12:32 37.829045 -120.668618 267 22549ft 360kts
19-Apr-18 12:33 37.807909 -120.790933 266 21028ft 354kts
19-Apr-18 12:34 37.787078 -120.911011 266 19471ft 350kts
19-Apr-18 12:35 37.766431 -121.029052 265 17600ft 341kts
19-Apr-18 12:36 37.746209 -121.144839 264 15784ft 335kts
19-Apr-18 12:37 37.726456 -121.258229 263 13962ft 329kts
19-Apr-18 12:38 37.699994 -121.368586 257 12148ft 327kts
19-Apr-18 12:39 37.671650 -121.476610 256 10329ft 322kts
19-Apr-18 12:40 37.645872 -121.575076 254 8689ft 286kts
19-Apr-18 12:41 37.621502 -121.668335 251 7283ft 272kts
19-Apr-18 12:42 37.610601 -121.760895 263 5961ft 265kts
19-Apr-18 12:43 37.606305 -121.853415 269 4868ft 264kts
19-Apr-18 12:44 37.606964 -121.940870 269 4410ft 235kts
19-Apr-18 12:45 37.605601 -122.019064 267 3283ft 206kts
19-Apr-18 12:46 37.615515 -122.083317 304 2591ft 175kts
19-Apr-18 12:47 37.645961 -122.131069 307 1737ft 171kts
19-Apr-18 12:48 37.673156 -122.171686 306 902ft 135kts
19-Apr-18 12:49 37.698405 -122.209457 304 205ft 136kts
19-Apr-18 12:50 37.712736 -122.230612 331 16ft 17kts
19-Apr-18 12:51 37.714836 -122.230465 130 15ft 7kts
19-Apr-18 12:52 37.712935 -122.227620 130 15ft 13kts
19-Apr-18 12:53 37.711365 -122.224049 44 16ft 12kts
19-Apr-18 12:54 37.712357 -122.220991 130 15ft 11kts
19-Apr-18 12:55 37.711400 -122.217556 38 16ft 7kts
19-Apr-18 12:56 37.711189 -122.216539 127 16ft 0kts

Navigation Log

Ident Type
Flight plan parsing failed, navigation log unavailable